Time;durP1;ratioP1;P1;durP2;ratioP2;P2;SDS_P1;SDS_P2;PMS_P1;PMS_P2;Temp;Humidity;BMP_temperature;BMP_pressure;BME280_temperature;BME280_humidity;BME280_pressure;Samples;Min_cycle;Max_cycle;Signal;HPM_P1;HPM_P2
2022/01/17 00:01:02;;;;;;;10.63;5.10;;;;;;;;;;5088087;28;20651;-44
2022/01/17 00:03:28;;;;;;;10.35;4.90;;;;;;;;;;5107902;28;20187;-44
2022/01/17 00:05:54;;;;;;;8.10;4.88;;;;;;;;;;5101404;28;20209;-44
2022/01/17 00:08:20;;;;;;;9.10;5.25;;;;;;;;;;5102847;28;20212;-44
2022/01/17 00:10:46;;;;;;;7.95;4.53;;;;;;;;;;5111039;28;20181;-44
2022/01/17 00:13:22;;;;;;;7.97;4.88;;;;;;;;;;5092458;28;20176;-44
2022/01/17 00:15:52;;;;;;;9.63;4.70;;;;;;;;;;5107718;28;20335;-44
2022/01/17 00:20:47;;;;;;;9.27;5.22;;;;;;;;;;5102188;28;20276;-44
2022/01/17 00:23:14;;;;;;;10.05;4.97;;;;;;;;;;5100373;28;20174;-44
2022/01/17 00:25:40;;;;;;;7.82;4.70;;;;;;;;;;5103878;28;20182;-44
2022/01/17 00:28:06;;;;;;;7.50;4.70;;;;;;;;;;5088377;28;20169;-44
2022/01/17 00:30:32;;;;;;;6.68;4.35;;;;;;;;;;5087324;28;20177;-43
2022/01/17 00:32:58;;;;;;;6.57;4.18;;;;;;;;;;5094741;28;20192;-43
2022/01/17 00:35:25;;;;;;;6.75;4.05;;;;;;;;;;5104831;28;20184;-43
2022/01/17 00:37:51;;;;;;;7.72;4.07;;;;;;;;;;5112996;28;20567;-44
2022/01/17 00:40:18;;;;;;;7.50;4.03;;;;;;;;;;5110249;28;20185;-44
2022/01/17 00:42:44;;;;;;;6.63;3.97;;;;;;;;;;5101659;28;20182;-44
2022/01/17 00:45:13;;;;;;;6.38;4.20;;;;;;;;;;5103433;28;20208;-44
2022/01/17 00:47:39;;;;;;;6.90;3.90;;;;;;;;;;5094388;28;20209;-44
2022/01/17 00:50:05;;;;;;;6.28;4.03;;;;;;;;;;5096072;28;20452;-43
2022/01/17 00:52:31;;;;;;;5.60;3.80;;;;;;;;;;5102519;28;20190;-43
2022/01/17 00:54:57;;;;;;;6.70;4.13;;;;;;;;;;5098488;28;20196;-43
2022/01/17 00:57:24;;;;;;;5.70;3.67;;;;;;;;;;5102490;28;20197;-43
2022/01/17 00:59:50;;;;;;;5.68;4.05;;;;;;;;;;5102400;28;20186;-43
2022/01/17 01:02:16;;;;;;;4.93;3.50;;;;;;;;;;5090836;28;20998;-43
2022/01/17 01:04:42;;;;;;;7.05;3.78;;;;;;;;;;5104151;28;20267;-44
2022/01/17 01:07:08;;;;;;;7.25;3.67;;;;;;;;;;5102734;28;20599;-44
2022/01/17 01:09:42;;;;;;;6.60;4.10;;;;;;;;;;5106853;28;20202;-44
2022/01/17 01:12:08;;;;;;;5.80;3.15;;;;;;;;;;5092869;28;20204;-43
2022/01/17 01:14:34;;;;;;;5.45;3.30;;;;;;;;;;5101808;28;20827;-43
2022/01/17 01:17:07;;;;;;;5.53;3.42;;;;;;;;;;5099797;28;20260;-43
2022/01/17 01:19:40;;;;;;;6.57;3.85;;;;;;;;;;5104931;28;20180;-43
2022/01/17 01:27:50;;;;;;;4.88;3.53;;;;;;;;;;5094654;28;20221;-43
2022/01/17 01:30:18;;;;;;;7.30;3.75;;;;;;;;;;5086353;28;20173;-44
2022/01/17 01:32:49;;;;;;;5.07;3.00;;;;;;;;;;5101504;28;20563;-44
2022/01/17 01:35:18;;;;;;;4.80;3.28;;;;;;;;;;5108887;28;20250;-43
2022/01/17 01:37:46;;;;;;;4.00;3.10;;;;;;;;;;5104535;28;20177;-43
2022/01/17 01:40:13;;;;;;;3.97;3.22;;;;;;;;;;5110390;28;20181;-43
2022/01/17 01:42:39;;;;;;;4.68;2.95;;;;;;;;;;5106140;28;20205;-43
2022/01/17 01:45:07;;;;;;;7.35;3.67;;;;;;;;;;5101775;28;20174;-43
2022/01/17 01:47:33;;;;;;;5.07;3.17;;;;;;;;;;5095604;28;20201;-43
2022/01/17 01:49:59;;;;;;;4.50;3.13;;;;;;;;;;5104222;28;20250;-43
2022/01/17 01:52:25;;;;;;;3.38;2.97;;;;;;;;;;5110354;28;20173;-43
2022/01/17 01:54:51;;;;;;;5.55;3.17;;;;;;;;;;5114743;28;20488;-43
2022/01/17 01:57:18;;;;;;;3.78;3.05;;;;;;;;;;5100442;28;20178;-43
2022/01/17 01:59:44;;;;;;;5.05;3.28;;;;;;;;;;5102792;28;20272;-43
2022/01/17 02:02:10;;;;;;;4.60;3.17;;;;;;;;;;5107409;28;20853;-43
2022/01/17 02:04:36;;;;;;;6.03;3.10;;;;;;;;;;5100336;28;20185;-43
2022/01/17 02:07:02;;;;;;;4.22;3.17;;;;;;;;;;5104969;28;20318;-43
2022/01/17 02:09:28;;;;;;;3.88;3.25;;;;;;;;;;5103206;28;20178;-43
2022/01/17 02:11:54;;;;;;;3.42;2.78;;;;;;;;;;5103754;28;20182;-43
2022/01/17 02:14:20;;;;;;;3.20;2.65;;;;;;;;;;5097940;28;20213;-43
2022/01/17 02:16:49;;;;;;;3.10;2.58;;;;;;;;;;5103912;28;20185;-43
2022/01/17 02:19:20;;;;;;;4.03;3.13;;;;;;;;;;5100820;28;20586;-43
2022/01/17 02:21:47;;;;;;;4.35;3.35;;;;;;;;;;5093493;28;20227;-43
2022/01/17 02:24:23;;;;;;;3.28;2.95;;;;;;;;;;5101564;28;20187;-43
2022/01/17 02:26:50;;;;;;;3.08;2.70;;;;;;;;;;5102808;28;20262;-43
2022/01/17 02:29:16;;;;;;;4.07;3.22;;;;;;;;;;5104960;28;20582;-43
2022/01/17 02:31:44;;;;;;;3.00;2.63;;;;;;;;;;5098816;28;20177;-43
2022/01/17 02:34:10;;;;;;;3.65;3.03;;;;;;;;;;5097037;28;20715;-43
2022/01/17 02:36:36;;;;;;;4.25;2.80;;;;;;;;;;5088432;28;20493;-43
2022/01/17 02:39:04;;;;;;;4.32;2.97;;;;;;;;;;5103458;28;20193;-43
2022/01/17 02:41:30;;;;;;;3.40;2.70;;;;;;;;;;5105325;28;20268;-43
2022/01/17 02:43:57;;;;;;;3.75;2.95;;;;;;;;;;5096087;28;20192;-43
2022/01/17 02:46:26;;;;;;;3.20;2.67;;;;;;;;;;5105383;28;20209;-43
2022/01/17 02:48:52;;;;;;;3.40;2.75;;;;;;;;;;5096217;28;20486;-43
2022/01/17 02:51:18;;;;;;;3.17;2.88;;;;;;;;;;5106842;28;20177;-43
2022/01/17 02:53:45;;;;;;;3.50;3.17;;;;;;;;;;5105867;28;20443;-43
2022/01/17 02:56:11;;;;;;;3.65;2.95;;;;;;;;;;5100871;28;20569;-43
2022/01/17 02:58:38;;;;;;;3.17;2.70;;;;;;;;;;5101705;28;20189;-44
2022/01/17 03:01:11;;;;;;;3.13;2.80;;;;;;;;;;5097252;28;20260;-43
2022/01/17 03:03:38;;;;;;;2.90;2.60;;;;;;;;;;5095907;28;20469;-43
2022/01/17 03:06:04;;;;;;;3.85;2.50;;;;;;;;;;5107660;28;20191;-43
2022/01/17 03:08:31;;;;;;;3.30;2.80;;;;;;;;;;5104888;28;20178;-43
2022/01/17 03:10:58;;;;;;;2.70;2.50;;;;;;;;;;5104872;28;20178;-43
2022/01/17 03:13:31;;;;;;;3.53;2.75;;;;;;;;;;5100768;28;20281;-43
2022/01/17 03:15:58;;;;;;;3.03;2.53;;;;;;;;;;5101601;28;20182;-43
2022/01/17 03:18:27;;;;;;;3.17;2.50;;;;;;;;;;5105513;28;20207;-43
2022/01/17 03:20:53;;;;;;;3.55;2.70;;;;;;;;;;5104986;28;20646;-43
2022/01/17 03:23:19;;;;;;;3.10;2.80;;;;;;;;;;5107945;28;20232;-43
2022/01/17 03:25:45;;;;;;;2.47;2.28;;;;;;;;;;5105793;28;20205;-43
2022/01/17 03:28:11;;;;;;;3.00;2.47;;;;;;;;;;5109599;28;20271;-43
2022/01/17 03:30:38;;;;;;;2.60;2.40;;;;;;;;;;5100374;28;20185;-43
2022/01/17 03:33:09;;;;;;;2.58;2.38;;;;;;;;;;5111911;28;20170;-43
2022/01/17 03:35:38;;;;;;;2.40;2.20;;;;;;;;;;5104589;28;20192;-43
2022/01/17 03:38:04;;;;;;;2.63;2.33;;;;;;;;;;5105458;28;20185;-43
2022/01/17 03:40:30;;;;;;;2.35;2.15;;;;;;;;;;5094873;28;20190;-43
2022/01/17 03:42:56;;;;;;;3.13;2.58;;;;;;;;;;5102589;28;20178;-43
2022/01/17 03:45:22;;;;;;;2.78;2.33;;;;;;;;;;5106846;28;20189;-43
2022/01/17 03:47:48;;;;;;;3.17;2.20;;;;;;;;;;5105557;28;20201;-43
2022/01/17 03:50:15;;;;;;;2.58;2.20;;;;;;;;;;5099586;28;20178;-43
2022/01/17 03:52:41;;;;;;;2.30;2.10;;;;;;;;;;5110975;28;20224;-43
2022/01/17 03:55:09;;;;;;;2.30;2.10;;;;;;;;;;5104716;28;20189;-43
2022/01/17 03:57:35;;;;;;;2.67;1.88;;;;;;;;;;5102900;28;20185;-43
2022/01/17 04:00:01;;;;;;;2.38;2.17;;;;;;;;;;5104370;28;20219;-44
2022/01/17 04:02:27;;;;;;;2.25;2.05;;;;;;;;;;5099725;28;20871;-44
2022/01/17 04:04:53;;;;;;;2.38;2.17;;;;;;;;;;5105745;28;20300;-44
2022/01/17 04:07:19;;;;;;;2.40;2.20;;;;;;;;;;5107779;28;20212;-43
2022/01/17 04:09:45;;;;;;;2.25;2.05;;;;;;;;;;5100177;28;20170;-43
2022/01/17 04:12:11;;;;;;;2.20;2.00;;;;;;;;;;5106082;28;20258;-43
2022/01/17 04:14:38;;;;;;;2.33;2.08;;;;;;;;;;5103735;28;20568;-43
2022/01/17 04:17:06;;;;;;;2.40;2.20;;;;;;;;;;5099056;28;20266;-43
2022/01/17 04:19:33;;;;;;;2.28;2.08;;;;;;;;;;5095356;28;20198;-43
2022/01/17 04:21:59;;;;;;;2.10;1.90;;;;;;;;;;5103150;28;20603;-43
2022/01/17 04:24:25;;;;;;;1.92;1.80;;;;;;;;;;5103430;28;20476;-43
2022/01/17 04:26:51;;;;;;;2.92;1.95;;;;;;;;;;5104971;28;20205;-43
2022/01/17 04:29:19;;;;;;;1.88;1.77;;;;;;;;;;5104433;28;20239;-43
2022/01/17 04:31:45;;;;;;;1.63;1.52;;;;;;;;;;5099159;28;20209;-43
2022/01/17 04:34:11;;;;;;;1.85;1.75;;;;;;;;;;5107174;28;20190;-44
2022/01/17 04:36:37;;;;;;;2.13;1.88;;;;;;;;;;5098585;28;20193;-44
2022/01/17 04:39:03;;;;;;;1.90;1.80;;;;;;;;;;5104730;28;20272;-44
2022/01/17 04:41:37;;;;;;;2.20;2.00;;;;;;;;;;5102929;28;20181;-43
2022/01/17 04:46:48;;;;;;;1.70;1.60;;;;;;;;;;5102361;28;20316;-43
2022/01/17 04:49:14;;;;;;;1.60;1.50;;;;;;;;;;5100161;28;20188;-43
2022/01/17 04:51:41;;;;;;;1.75;1.65;;;;;;;;;;5098408;28;20186;-44
2022/01/17 04:56:48;;;;;;;1.70;1.60;;;;;;;;;;5096001;28;20434;-43
2022/01/17 04:59:14;;;;;;;1.50;1.40;;;;;;;;;;5105188;28;20169;-43
2022/01/17 05:01:39;;;;;;;10.65;2.42;;;;;;;;;;5103409;28;20804;-43
2022/01/17 05:04:05;;;;;;;5.20;2.08;;;;;;;;;;5103121;28;20235;-43
2022/01/17 05:06:31;;;;;;;10.15;2.40;;;;;;;;;;5108331;28;20591;-43
2022/01/17 05:08:58;;;;;;;10.02;3.25;;;;;;;;;;5101958;28;20185;-43
2022/01/17 05:11:29;;;;;;;11.90;3.30;;;;;;;;;;5105322;28;20238;-43
2022/01/17 05:13:55;;;;;;;12.63;3.65;;;;;;;;;;5094985;28;20166;-43
2022/01/17 05:16:22;;;;;;;13.85;3.60;;;;;;;;;;5104236;28;20548;-43
2022/01/17 05:21:15;;;;;;;15.32;3.72;;;;;;;;;;5101069;28;20205;-43
2022/01/17 05:23:42;;;;;;;10.85;4.13;;;;;;;;;;5101245;28;20204;-43
2022/01/17 05:26:08;;;;;;;10.98;3.75;;;;;;;;;;5084203;28;20284;-43
2022/01/17 05:28:34;;;;;;;12.32;3.90;;;;;;;;;;5103941;28;20185;-43
2022/01/17 05:31:01;;;;;;;16.15;4.97;;;;;;;;;;5097158;28;20181;-43
2022/01/17 05:33:27;;;;;;;16.67;5.03;;;;;;;;;;5108000;28;20276;-43
2022/01/17 05:35:53;;;;;;;14.63;5.32;;;;;;;;;;5104529;28;20287;-43
2022/01/17 05:38:19;;;;;;;16.67;4.80;;;;;;;;;;5101932;28;20174;-43
2022/01/17 05:40:44;;;;;;;16.88;5.38;;;;;;;;;;5097747;28;20273;-43
2022/01/17 05:43:10;;;;;;;15.15;5.07;;;;;;;;;;5105787;28;20256;-43
2022/01/17 05:45:36;;;;;;;16.25;5.25;;;;;;;;;;5101973;28;20182;-43
2022/01/17 05:48:02;;;;;;;14.45;5.40;;;;;;;;;;5094855;28;20234;-43
2022/01/17 05:50:28;;;;;;;15.05;5.47;;;;;;;;;;5098929;28;20510;-43
2022/01/17 05:52:54;;;;;;;17.30;5.22;;;;;;;;;;5093424;28;20530;-43
2022/01/17 05:55:20;;;;;;;17.33;5.28;;;;;;;;;;5097347;28;20188;-43
2022/01/17 05:57:47;;;;;;;16.35;5.68;;;;;;;;;;5102005;28;20188;-43
2022/01/17 06:00:15;;;;;;;18.25;5.47;;;;;;;;;;5096539;28;20190;-43
2022/01/17 06:02:41;;;;;;;13.82;5.07;;;;;;;;;;5102492;28;20196;-43
2022/01/17 06:05:08;;;;;;;15.07;6.03;;;;;;;;;;5093331;28;20482;-43
2022/01/17 06:07:34;;;;;;;18.40;5.93;;;;;;;;;;5101018;28;20598;-43
2022/01/17 06:09:59;;;;;;;15.95;5.65;;;;;;;;;;5101358;28;20176;-43
2022/01/17 06:12:25;;;;;;;19.85;6.07;;;;;;;;;;5096190;28;20500;-43
2022/01/17 06:14:52;;;;;;;14.45;5.35;;;;;;;;;;5102742;28;20170;-43
2022/01/17 06:17:18;;;;;;;14.40;4.88;;;;;;;;;;5098410;28;20583;-44
2022/01/17 06:19:44;;;;;;;13.20;4.85;;;;;;;;;;5095274;28;20185;-43
2022/01/17 06:22:10;;;;;;;18.52;5.20;;;;;;;;;;5104961;28;20573;-44
2022/01/17 06:24:36;;;;;;;15.50;5.55;;;;;;;;;;5101435;28;20613;-44
2022/01/17 06:27:03;;;;;;;16.90;5.45;;;;;;;;;;5109420;28;20209;-44
2022/01/17 06:29:29;;;;;;;11.80;4.65;;;;;;;;;;5097272;28;20214;-43
2022/01/17 06:31:55;;;;;;;12.88;4.45;;;;;;;;;;5103801;28;20818;-43
2022/01/17 06:34:21;;;;;;;14.98;4.88;;;;;;;;;;5100007;28;20291;-43
2022/01/17 06:36:48;;;;;;;14.10;5.22;;;;;;;;;;5090853;28;20481;-43
2022/01/17 06:39:14;;;;;;;12.63;4.80;;;;;;;;;;5099502;28;20197;-43
2022/01/17 06:41:40;;;;;;;15.10;4.75;;;;;;;;;;5097562;28;20182;-43
2022/01/17 06:44:06;;;;;;;12.80;4.88;;;;;;;;;;5104614;28;20214;-43
2022/01/17 06:46:32;;;;;;;13.15;5.07;;;;;;;;;;5097791;28;20213;-43
2022/01/17 06:48:58;;;;;;;12.85;4.38;;;;;;;;;;5095755;28;20184;-43
2022/01/17 06:51:25;;;;;;;12.18;5.35;;;;;;;;;;5093570;28;20185;-43
2022/01/17 06:53:51;;;;;;;11.77;4.35;;;;;;;;;;5093408;28;20268;-43
2022/01/17 06:56:17;;;;;;;9.45;4.10;;;;;;;;;;5098445;28;20311;-43
2022/01/17 06:58:44;;;;;;;12.90;4.75;;;;;;;;;;5100690;28;20196;-43
2022/01/17 07:01:10;;;;;;;12.48;4.35;;;;;;;;;;5104325;28;20261;-43
2022/01/17 07:03:37;;;;;;;16.75;4.80;;;;;;;;;;5097528;28;20190;-43
2022/01/17 07:06:03;;;;;;;13.85;4.90;;;;;;;;;;5097659;28;20192;-44
2022/01/17 07:08:30;;;;;;;11.32;4.60;;;;;;;;;;5100004;28;20608;-43
2022/01/17 07:10:56;;;;;;;9.55;4.43;;;;;;;;;;5105114;28;20284;-44
2022/01/17 07:13:22;;;;;;;12.80;4.75;;;;;;;;;;5103535;28;20193;-43
2022/01/17 07:15:48;;;;;;;10.73;4.22;;;;;;;;;;5098344;28;20435;-43
2022/01/17 07:18:14;;;;;;;8.98;4.60;;;;;;;;;;5101341;28;20186;-43
2022/01/17 07:20:41;;;;;;;10.05;4.43;;;;;;;;;;5101611;28;20184;-43
2022/01/17 07:23:07;;;;;;;10.48;3.90;;;;;;;;;;5073363;28;20213;-43
2022/01/17 07:25:38;;;;;;;8.73;4.13;;;;;;;;;;5092638;28;20209;-43
2022/01/17 07:28:04;;;;;;;9.40;4.35;;;;;;;;;;5093757;28;20194;-43
2022/01/17 07:30:30;;;;;;;9.65;3.92;;;;;;;;;;5093325;28;20504;-43
2022/01/17 07:32:56;;;;;;;9.40;3.70;;;;;;;;;;5093411;28;20177;-43
2022/01/17 07:35:22;;;;;;;12.25;4.25;;;;;;;;;;5092947;28;20193;-43
2022/01/17 07:37:48;;;;;;;9.45;3.90;;;;;;;;;;5100576;28;20188;-43
2022/01/17 07:40:14;;;;;;;11.13;4.38;;;;;;;;;;5104070;28;20185;-43
2022/01/17 07:42:41;;;;;;;11.02;4.50;;;;;;;;;;5099197;28;20178;-43
2022/01/17 07:45:15;;;;;;;8.70;3.83;;;;;;;;;;5087361;28;20189;-43
2022/01/17 07:48:06;;;;;;;9.50;4.15;;;;;;;;;;5104822;28;20262;-43
2022/01/17 07:50:31;;;;;;;9.65;4.20;;;;;;;;;;5099241;28;20289;-43
2022/01/17 07:52:57;;;;;;;6.53;3.30;;;;;;;;;;5099683;28;20177;-43
2022/01/17 07:55:23;;;;;;;7.63;3.50;;;;;;;;;;5101194;28;20181;-43
2022/01/17 07:57:50;;;;;;;8.30;3.83;;;;;;;;;;5100855;28;20177;-43
2022/01/17 08:00:20;;;;;;;6.75;3.58;;;;;;;;;;5097820;28;20189;-43
2022/01/17 08:02:47;;;;;;;10.85;4.03;;;;;;;;;;5105286;28;20185;-43
2022/01/17 08:05:14;;;;;;;8.93;3.90;;;;;;;;;;5104654;28;20177;-43
2022/01/17 08:07:41;;;;;;;8.02;3.53;;;;;;;;;;5099904;28;20292;-43
2022/01/17 08:10:12;;;;;;;5.72;3.05;;;;;;;;;;5092636;28;20492;-43
2022/01/17 08:12:38;;;;;;;6.93;3.70;;;;;;;;;;5102938;28;20178;-43
2022/01/17 08:15:05;;;;;;;8.02;3.20;;;;;;;;;;5102425;28;20188;-43
2022/01/17 08:17:31;;;;;;;7.32;3.45;;;;;;;;;;5095736;28;20185;-43
2022/01/17 08:19:57;;;;;;;7.22;3.42;;;;;;;;;;5099246;28;20178;-43
2022/01/17 08:22:23;;;;;;;7.22;3.45;;;;;;;;;;5104084;28;20612;-43
2022/01/17 08:24:49;;;;;;;6.85;3.67;;;;;;;;;;5105660;28;20226;-43
2022/01/17 08:27:16;;;;;;;6.80;3.83;;;;;;;;;;5107554;28;20481;-43
2022/01/17 08:29:42;;;;;;;6.95;3.28;;;;;;;;;;5096276;28;20224;-43
2022/01/17 08:32:08;;;;;;;8.25;3.35;;;;;;;;;;5096173;28;20169;-43
2022/01/17 08:34:34;;;;;;;6.90;3.05;;;;;;;;;;5108440;28;20259;-43
2022/01/17 08:37:02;;;;;;;5.70;3.40;;;;;;;;;;5103604;28;20548;-43
2022/01/17 08:39:28;;;;;;;5.10;2.88;;;;;;;;;;5107986;28;20615;-43
2022/01/17 08:41:54;;;;;;;6.57;3.33;;;;;;;;;;5096923;28;20189;-43
2022/01/17 08:44:21;;;;;;;4.85;2.60;;;;;;;;;;5099934;28;20430;-43
2022/01/17 08:46:47;;;;;;;5.25;2.95;;;;;;;;;;5095831;28;20213;-43
2022/01/17 08:49:13;;;;;;;7.90;3.13;;;;;;;;;;5104626;28;20257;-43
2022/01/17 08:51:39;;;;;;;5.80;2.80;;;;;;;;;;5099254;28;20181;-43
2022/01/17 08:54:06;;;;;;;6.25;3.05;;;;;;;;;;5106987;28;20177;-43
2022/01/17 08:56:32;;;;;;;4.28;2.72;;;;;;;;;;5106317;28;20244;-43
2022/01/17 08:59:02;;;;;;;4.63;2.67;;;;;;;;;;5104659;28;20196;-43
2022/01/17 09:01:28;;;;;;;6.18;2.72;;;;;;;;;;5105608;28;20181;-43
2022/01/17 09:03:54;;;;;;;4.65;2.78;;;;;;;;;;5104146;28;20254;-43
2022/01/17 09:06:20;;;;;;;5.70;2.83;;;;;;;;;;5094737;28;20217;-43
2022/01/17 09:08:46;;;;;;;5.05;2.55;;;;;;;;;;5111704;28;20192;-43
2022/01/17 09:11:13;;;;;;;6.60;3.00;;;;;;;;;;5077642;28;20261;-43
2022/01/17 09:13:39;;;;;;;3.85;2.53;;;;;;;;;;5085462;28;20544;-43
2022/01/17 09:16:05;;;;;;;4.82;2.58;;;;;;;;;;5100667;28;20198;-43
2022/01/17 09:18:31;;;;;;;4.85;2.72;;;;;;;;;;5103889;28;20189;-43
2022/01/17 09:20:57;;;;;;;3.60;2.17;;;;;;;;;;5103244;28;20254;-43
2022/01/17 09:23:23;;;;;;;4.55;2.63;;;;;;;;;;5103888;28;20547;-43
2022/01/17 09:25:49;;;;;;;3.47;2.25;;;;;;;;;;5107928;28;20200;-43
2022/01/17 09:28:15;;;;;;;5.85;2.40;;;;;;;;;;5097817;28;20221;-43
2022/01/17 09:30:41;;;;;;;5.03;2.15;;;;;;;;;;5108627;28;20184;-43
2022/01/17 09:33:07;;;;;;;4.88;2.22;;;;;;;;;;5104097;28;20174;-43
2022/01/17 09:35:33;;;;;;;3.90;2.22;;;;;;;;;;5099683;28;20421;-43
2022/01/17 09:38:00;;;;;;;3.10;2.05;;;;;;;;;;5102775;28;20464;-43
2022/01/17 09:40:26;;;;;;;5.80;2.30;;;;;;;;;;5102734;28;20231;-43
2022/01/17 09:42:53;;;;;;;4.53;2.20;;;;;;;;;;5099729;28;20294;-43
2022/01/17 09:45:20;;;;;;;4.45;1.98;;;;;;;;;;5105935;28;20172;-43
2022/01/17 09:47:47;;;;;;;3.55;2.20;;;;;;;;;;5098434;28;20285;-43
2022/01/17 09:50:17;;;;;;;3.00;2.22;;;;;;;;;;5102369;28;20178;-43
2022/01/17 09:52:48;;;;;;;3.30;2.13;;;;;;;;;;5102586;28;20181;-43
2022/01/17 09:55:20;;;;;;;3.15;1.90;;;;;;;;;;5106114;28;20177;-43
2022/01/17 09:57:49;;;;;;;4.40;2.28;;;;;;;;;;5105071;28;20254;-43
2022/01/17 10:00:16;;;;;;;5.15;1.70;;;;;;;;;;5111906;28;20192;-43
2022/01/17 10:02:43;;;;;;;3.78;1.95;;;;;;;;;;5105405;28;20280;-43
2022/01/17 10:05:09;;;;;;;3.30;1.88;;;;;;;;;;5105837;28;20454;-43
2022/01/17 10:07:53;;;;;;;4.60;1.90;;;;;;;;;;5107380;28;20217;-43
2022/01/17 10:10:38;;;;;;;4.22;2.15;;;;;;;;;;5101815;28;20173;-43
2022/01/17 10:13:07;;;;;;;3.47;2.22;;;;;;;;;;5104070;28;20181;-43
2022/01/17 10:15:45;;;;;;;2.97;2.03;;;;;;;;;;5106592;28;20180;-43
2022/01/17 10:18:28;;;;;;;3.83;1.95;;;;;;;;;;5100669;28;20224;-43
2022/01/17 10:21:07;;;;;;;2.97;2.10;;;;;;;;;;5106399;28;20635;-43
2022/01/17 10:26:28;;;;;;;3.58;1.73;;;;;;;;;;5093771;28;20579;-43
2022/01/17 10:36:44;;;;;;;2.65;1.80;;;;;;;;;;5099009;28;20208;-43
2022/01/17 10:39:10;;;;;;;3.55;2.10;;;;;;;;;;5099588;28;20193;-43
2022/01/17 10:41:36;;;;;;;2.92;2.10;;;;;;;;;;5104672;28;20188;-43
2022/01/17 10:44:02;;;;;;;5.18;2.10;;;;;;;;;;5101755;28;20676;-43
2022/01/17 10:46:28;;;;;;;3.85;2.10;;;;;;;;;;5100348;28;20473;-43
2022/01/17 10:48:56;;;;;;;4.13;2.17;;;;;;;;;;5102389;28;20184;-43
2022/01/17 10:51:37;;;;;;;2.78;1.83;;;;;;;;;;5093083;28;20269;-43
2022/01/17 10:54:13;;;;;;;3.47;1.48;;;;;;;;;;5091705;28;20248;-43
2022/01/17 10:56:50;;;;;;;4.60;2.17;;;;;;;;;;5092094;28;20258;-43
2022/01/17 10:59:25;;;;;;;2.40;1.60;;;;;;;;;;5092571;28;20166;-43
2022/01/17 11:01:54;;;;;;;1.80;1.63;;;;;;;;;;5092274;28;20169;-43
2022/01/17 11:04:33;;;;;;;4.05;1.58;;;;;;;;;;5092589;28;20177;-43
2022/01/17 11:07:02;;;;;;;2.72;1.83;;;;;;;;;;5094578;28;20459;-46
2022/01/17 11:09:37;;;;;;;3.47;1.75;;;;;;;;;;5093963;28;20227;-44
2022/01/17 11:12:08;;;;;;;2.53;2.00;;;;;;;;;;5093324;28;20165;-44
2022/01/17 11:14:36;;;;;;;2.88;1.40;;;;;;;;;;5085710;28;20174;-44
2022/01/17 11:17:09;;;;;;;1.80;1.60;;;;;;;;;;5093065;28;20190;-44
2022/01/17 11:22:21;;;;;;;1.90;1.75;;;;;;;;;;5073608;28;20240;-43
2022/01/17 11:24:47;;;;;;;2.10;1.48;;;;;;;;;;5088170;28;20182;-43
2022/01/17 11:27:13;;;;;;;1.98;1.50;;;;;;;;;;5093699;28;20202;-43
2022/01/17 11:29:39;;;;;;;2.00;1.50;;;;;;;;;;5093429;28;20189;-44
2022/01/17 11:32:05;;;;;;;2.10;1.55;;;;;;;;;;5093771;28;20231;-43
2022/01/17 11:34:32;;;;;;;1.85;1.40;;;;;;;;;;5093017;28;20180;-43
2022/01/17 11:36:59;;;;;;;4.25;1.80;;;;;;;;;;5093690;28;20253;-43
2022/01/17 11:39:25;;;;;;;1.70;1.40;;;;;;;;;;5093638;28;20208;-43
2022/01/17 11:41:51;;;;;;;3.13;1.80;;;;;;;;;;5094129;28;20174;-43
2022/01/17 11:44:31;;;;;;;1.83;1.40;;;;;;;;;;5090514;28;20461;-43
2022/01/17 11:46:59;;;;;;;1.73;1.40;;;;;;;;;;5087686;28;20303;-43
2022/01/17 11:49:26;;;;;;;3.25;1.65;;;;;;;;;;5091535;28;20420;-44
2022/01/17 11:51:52;;;;;;;1.50;1.40;;;;;;;;;;5085984;28;20249;-44
2022/01/17 11:54:19;;;;;;;3.90;1.75;;;;;;;;;;5076314;28;20181;-44
2022/01/17 11:56:47;;;;;;;1.90;1.50;;;;;;;;;;5077208;28;20171;-44
2022/01/17 11:59:32;;;;;;;2.22;1.45;;;;;;;;;;5113513;28;20213;-44
2022/01/17 12:02:24;;;;;;;2.10;1.40;;;;;;;;;;5117801;28;20702;-43
2022/01/17 12:05:08;;;;;;;1.95;1.40;;;;;;;;;;5058043;28;20190;-43
2022/01/17 12:07:37;;;;;;;1.48;1.30;;;;;;;;;;5097199;28;20193;-43
2022/01/17 12:10:11;;;;;;;1.60;1.20;;;;;;;;;;5097080;28;20530;-44
2022/01/17 12:12:37;;;;;;;2.15;1.45;;;;;;;;;;5087943;28;20715;-43
2022/01/17 12:15:08;;;;;;;1.80;1.40;;;;;;;;;;5085924;28;20173;-44
2022/01/17 12:17:36;;;;;;;5.93;2.00;;;;;;;;;;5097103;28;20200;-43
2022/01/17 12:20:05;;;;;;;1.98;1.20;;;;;;;;;;5095941;28;20169;-43
2022/01/17 12:22:31;;;;;;;1.17;1.08;;;;;;;;;;5076504;28;20581;-43
2022/01/17 12:24:57;;;;;;;2.70;1.25;;;;;;;;;;5075730;28;20190;-43
2022/01/17 12:27:27;;;;;;;1.35;1.25;;;;;;;;;;5076195;28;20198;-43
2022/01/17 12:29:54;;;;;;;2.20;1.50;;;;;;;;;;5076515;28;20461;-44
2022/01/17 12:32:28;;;;;;;1.15;1.02;;;;;;;;;;5088196;28;20219;-43
2022/01/17 12:34:59;;;;;;;1.95;1.35;;;;;;;;;;5095772;28;20254;-43
2022/01/17 12:37:37;;;;;;;2.20;1.30;;;;;;;;;;5096361;28;20215;-43
2022/01/17 12:40:21;;;;;;;2.05;1.30;;;;;;;;;;5096326;28;20252;-43
2022/01/17 12:42:48;;;;;;;1.70;1.00;;;;;;;;;;5096549;28;20193;-43
2022/01/17 12:45:21;;;;;;;2.08;1.25;;;;;;;;;;5089374;28;20178;-43
2022/01/17 12:47:48;;;;;;;1.83;1.52;;;;;;;;;;5084584;28;20194;-43
2022/01/17 12:50:14;;;;;;;1.45;1.15;;;;;;;;;;5098499;28;20181;-43
2022/01/17 12:52:40;;;;;;;1.70;1.30;;;;;;;;;;5094436;28;20209;-43
2022/01/17 12:55:06;;;;;;;1.52;1.08;;;;;;;;;;5100147;28;20178;-44
2022/01/17 12:57:38;;;;;;;1.55;1.20;;;;;;;;;;5095811;28;20189;-43
2022/01/17 13:00:05;;;;;;;1.13;1.00;;;;;;;;;;5089257;28;20173;-43
2022/01/17 13:02:31;;;;;;;1.75;1.27;;;;;;;;;;5087711;28;20489;-43
2022/01/17 13:04:58;;;;;;;1.67;1.30;;;;;;;;;;5089752;28;20197;-44
2022/01/17 13:07:25;;;;;;;1.10;1.00;;;;;;;;;;5088609;28;20222;-44
2022/01/17 13:09:51;;;;;;;1.45;1.30;;;;;;;;;;5089154;28;20177;-44
2022/01/17 13:12:17;;;;;;;1.17;1.08;;;;;;;;;;5087493;28;20222;-44
2022/01/17 13:14:44;;;;;;;1.77;1.05;;;;;;;;;;5087337;28;20264;-44
2022/01/17 13:17:10;;;;;;;1.17;1.00;;;;;;;;;;5103046;28;20461;-44
2022/01/17 13:19:36;;;;;;;1.30;1.10;;;;;;;;;;5088798;28;20193;-44
2022/01/17 13:22:03;;;;;;;1.27;1.00;;;;;;;;;;5087640;28;20205;-44
2022/01/17 13:27:16;;;;;;;1.45;1.15;;;;;;;;;;5087887;28;20469;-44
2022/01/17 13:29:43;;;;;;;1.20;1.10;;;;;;;;;;5087747;28;20174;-44
2022/01/17 13:32:11;;;;;;;1.75;1.05;;;;;;;;;;5087637;28;20174;-44
2022/01/17 13:34:38;;;;;;;1.30;1.10;;;;;;;;;;5086431;28;20165;-44
2022/01/17 13:37:05;;;;;;;1.00;0.90;;;;;;;;;;5088267;28;20189;-44
2022/01/17 13:39:31;;;;;;;1.13;1.02;;;;;;;;;;5088772;28;20186;-44
2022/01/17 13:41:59;;;;;;;1.52;1.02;;;;;;;;;;5086583;28;20182;-44
2022/01/17 13:44:27;;;;;;;1.00;0.88;;;;;;;;;;5095109;28;20185;-44
2022/01/17 13:46:58;;;;;;;1.88;1.00;;;;;;;;;;5096305;28;20213;-43
2022/01/17 13:49:24;;;;;;;0.80;0.80;;;;;;;;;;5089019;28;20178;-43
2022/01/17 13:51:51;;;;;;;1.83;0.95;;;;;;;;;;5089095;28;20210;-43
2022/01/17 13:54:34;;;;;;;0.90;0.90;;;;;;;;;;5086220;28;20461;-43
2022/01/17 13:57:01;;;;;;;0.70;0.70;;;;;;;;;;5087192;28;20549;-43
2022/01/17 13:59:27;;;;;;;0.85;0.77;;;;;;;;;;5086324;28;20228;-44
2022/01/17 14:01:55;;;;;;;1.45;0.90;;;;;;;;;;5087752;28;20587;-44
2022/01/17 14:04:29;;;;;;;0.80;0.80;;;;;;;;;;5086042;28;20185;-44
2022/01/17 14:06:56;;;;;;;1.08;0.75;;;;;;;;;;5089010;28;20205;-44
2022/01/17 14:09:36;;;;;;;1.15;0.95;;;;;;;;;;5106345;28;20173;-44
2022/01/17 14:12:02;;;;;;;0.90;0.90;;;;;;;;;;5104475;28;20177;-44
2022/01/17 14:14:29;;;;;;;1.00;0.90;;;;;;;;;;5100630;28;20574;-44
2022/01/17 14:16:55;;;;;;;0.70;0.70;;;;;;;;;;5097230;28;20788;-44
2022/01/17 14:19:22;;;;;;;0.88;0.80;;;;;;;;;;5104831;28;20208;-44
2022/01/17 14:22:00;;;;;;;0.70;0.70;;;;;;;;;;5094072;28;20242;-44
2022/01/17 14:24:27;;;;;;;1.20;1.00;;;;;;;;;;5094476;28;20697;-44
2022/01/17 14:26:57;;;;;;;0.80;0.80;;;;;;;;;;5103011;28;20209;-44
2022/01/17 14:29:24;;;;;;;0.82;0.70;;;;;;;;;;5095769;28;20266;-44
2022/01/17 14:31:51;;;;;;;1.10;0.80;;;;;;;;;;5096913;28;20178;-44
2022/01/17 14:34:21;;;;;;;1.10;0.63;;;;;;;;;;5096275;28;20186;-44
2022/01/17 14:37:17;;;;;;;1.30;0.70;;;;;;;;;;5102843;28;20214;-44
2022/01/17 14:39:44;;;;;;;0.63;0.55;;;;;;;;;;5078561;28;20502;-44
2022/01/17 14:42:22;;;;;;;0.75;0.73;;;;;;;;;;5088092;28;20182;-44
2022/01/17 14:44:51;;;;;;;0.68;0.60;;;;;;;;;;5087508;28;20197;-44
2022/01/17 14:47:18;;;;;;;1.20;0.77;;;;;;;;;;5092770;28;20202;-44
2022/01/17 14:49:45;;;;;;;1.00;0.70;;;;;;;;;;5098417;28;20292;-43
2022/01/17 14:52:13;;;;;;;2.13;1.10;;;;;;;;;;5107613;28;20177;-43
2022/01/17 14:54:48;;;;;;;0.80;0.75;;;;;;;;;;5104412;28;20264;-44
2022/01/17 15:00:06;;;;;;;0.80;0.60;;;;;;;;;;5104538;28;20209;-43
2022/01/17 15:03:12;;;;;;;1.38;1.00;;;;;;;;;;5098227;28;20212;-43
2022/01/17 15:05:25;;;;;;;5.60;0.80;;;;;;;;;;5095941;28;20301;-43
2022/01/17 15:07:52;;;;;;;2.70;0.85;;;;;;;;;;5102842;28;20204;-43
2022/01/17 15:10:19;;;;;;;0.63;0.63;;;;;;;;;;5104203;28;20192;-44
2022/01/17 15:12:45;;;;;;;1.55;0.80;;;;;;;;;;5101232;28;20261;-44
2022/01/17 15:15:11;;;;;;;1.00;0.90;;;;;;;;;;5100938;28;20182;-44
2022/01/17 15:17:39;;;;;;;0.98;0.88;;;;;;;;;;5094880;28;20533;-43
2022/01/17 15:20:06;;;;;;;1.10;0.85;;;;;;;;;;5101583;28;20177;-44